首页
METAR-TAF:

METAR-TAF

机场 :

Albion Municipal Airport

Albion, 內布拉斯加州, 美国

纬度: 41-43-42N, 经度: 098-03-20W, 海拔: 551米

当前天气观测

该预报发布于28分钟前的04:15 UTC
风速9节,风向
温度 3°C
湿度 81%
气压 1021 hPa
能見度: 16.1公里
多云层高于1900英尺
阴天层高于2400英尺

METAR: KBVN 140415Z AUTO 35009KT 10SM BKN019 OVC024 03/00 A3015 RMK AO2 T00300001

时间: 22:43 (04:43 UTC)


TAF: 丢失

超过4000个机场的气象观测和天气预报(METAR&TAF报告)。

可查询的气象台以黄色和红色小点在地图上表示。

将鼠标移到小点上方,可查看气象台名称。

然后点击查看天气观测和预报。

如需切换地图:点击带黑十字的绿色按钮放大地图;点击带横线的绿色按钮缩小地图;或者点击绿色箭头查看邻近地区的地图。


METAR-TAF: